sensor_id;sensor_type;location;lat;lon;timestamp;temperature;humidity
52879;DHT22;38747;53.140;6.498;2023-01-25T00:00:48;0.90;99.90
52879;DHT22;38747;53.140;6.498;2023-01-25T00:03:13;0.90;99.90
52879;DHT22;38747;53.140;6.498;2023-01-25T00:05:39;0.90;99.90
52879;DHT22;38747;53.140;6.498;2023-01-25T00:08:05;0.80;99.90
52879;DHT22;38747;53.140;6.498;2023-01-25T00:10:30;0.80;99.90
52879;DHT22;38747;53.140;6.498;2023-01-25T00:12:56;0.80;99.90
52879;DHT22;38747;53.140;6.498;2023-01-25T00:15:22;0.70;99.90
52879;DHT22;38747;53.140;6.498;2023-01-25T00:17:47;0.70;99.90
52879;DHT22;38747;53.140;6.498;2023-01-25T00:20:13;0.70;99.90
52879;DHT22;38747;53.140;6.498;2023-01-25T00:22:39;0.70;99.90
52879;DHT22;38747;53.140;6.498;2023-01-25T00:25:05;0.70;99.90
52879;DHT22;38747;53.140;6.498;2023-01-25T00:27:31;0.70;99.90
52879;DHT22;38747;53.140;6.498;2023-01-25T00:29:56;0.70;99.90
52879;DHT22;38747;53.140;6.498;2023-01-25T00:34:49;0.70;99.90
52879;DHT22;38747;53.140;6.498;2023-01-25T00:37:28;0.70;99.90
52879;DHT22;38747;53.140;6.498;2023-01-25T00:39:54;0.70;99.90
52879;DHT22;38747;53.140;6.498;2023-01-25T00:42:20;0.80;99.90
52879;DHT22;38747;53.140;6.498;2023-01-25T00:44:47;0.80;99.90
52879;DHT22;38747;53.140;6.498;2023-01-25T00:47:13;0.70;99.90
52879;DHT22;38747;53.140;6.498;2023-01-25T00:49:41;0.80;99.90
52879;DHT22;38747;53.140;6.498;2023-01-25T00:52:07;0.80;99.90
52879;DHT22;38747;53.140;6.498;2023-01-25T00:54:33;0.70;99.90
52879;DHT22;38747;53.140;6.498;2023-01-25T00:56:59;0.70;99.90
52879;DHT22;38747;53.140;6.498;2023-01-25T00:59:24;0.70;99.90
52879;DHT22;38747;53.140;6.498;2023-01-25T01:01:51;0.70;99.90
52879;DHT22;38747;53.140;6.498;2023-01-25T01:04:18;0.60;99.90
52879;DHT22;38747;53.140;6.498;2023-01-25T01:06:44;0.60;99.90
52879;DHT22;38747;53.140;6.498;2023-01-25T01:09:15;0.60;99.90
52879;DHT22;38747;53.140;6.498;2023-01-25T01:11:41;0.50;99.90
52879;DHT22;38747;53.140;6.498;2023-01-25T01:14:07;0.50;99.90
52879;DHT22;38747;53.140;6.498;2023-01-25T01:16:32;0.50;99.90
52879;DHT22;38747;53.140;6.498;2023-01-25T01:18:58;0.50;99.90
52879;DHT22;38747;53.140;6.498;2023-01-25T01:21:24;0.50;99.90
52879;DHT22;38747;53.140;6.498;2023-01-25T01:23:50;0.50;99.90
52879;DHT22;38747;53.140;6.498;2023-01-25T01:26:17;0.50;99.90
52879;DHT22;38747;53.140;6.498;2023-01-25T01:28:46;0.50;99.90
52879;DHT22;38747;53.140;6.498;2023-01-25T01:31:18;0.60;99.90
52879;DHT22;38747;53.140;6.498;2023-01-25T01:33:44;0.60;99.90
52879;DHT22;38747;53.140;6.498;2023-01-25T01:36:14;0.60;99.90
52879;DHT22;38747;53.140;6.498;2023-01-25T01:38:41;0.60;99.90
52879;DHT22;38747;53.140;6.498;2023-01-25T01:41:08;0.60;99.90
52879;DHT22;38747;53.140;6.498;2023-01-25T01:43:34;0.60;99.90
52879;DHT22;38747;53.140;6.498;2023-01-25T01:46:01;0.60;99.90
52879;DHT22;38747;53.140;6.498;2023-01-25T01:53:31;0.50;99.90
52879;DHT22;38747;53.140;6.498;2023-01-25T01:56:00;0.50;99.90
52879;DHT22;38747;53.140;6.498;2023-01-25T01:58:27;0.50;99.90
52879;DHT22;38747;53.140;6.498;2023-01-25T02:00:53;0.50;99.90
52879;DHT22;38747;53.140;6.498;2023-01-25T02:03:19;0.50;99.90
52879;DHT22;38747;53.140;6.498;2023-01-25T02:06:01;0.50;99.90
52879;DHT22;38747;53.140;6.498;2023-01-25T02:08:31;0.40;99.90
52879;DHT22;38747;53.140;6.498;2023-01-25T02:10:58;0.40;99.90
52879;DHT22;38747;53.140;6.498;2023-01-25T02:13:25;0.40;99.90
52879;DHT22;38747;53.140;6.498;2023-01-25T02:15:51;0.40;99.90
52879;DHT22;38747;53.140;6.498;2023-01-25T02:18:18;0.40;99.90
52879;DHT22;38747;53.140;6.498;2023-01-25T02:20:46;0.40;99.90
52879;DHT22;38747;53.140;6.498;2023-01-25T02:23:47;0.40;99.90
52879;DHT22;38747;53.140;6.498;2023-01-25T02:26:16;0.40;99.90
52879;DHT22;38747;53.140;6.498;2023-01-25T02:28:49;0.40;99.90
52879;DHT22;38747;53.140;6.498;2023-01-25T02:31:15;0.50;99.90
52879;DHT22;38747;53.140;6.498;2023-01-25T02:33:41;0.50;99.90
52879;DHT22;38747;53.140;6.498;2023-01-25T02:38:35;0.50;99.90
52879;DHT22;38747;53.140;6.498;2023-01-25T02:41:15;0.50;99.90
52879;DHT22;38747;53.140;6.498;2023-01-25T02:43:41;0.50;99.90
52879;DHT22;38747;53.140;6.498;2023-01-25T02:48:42;0.40;99.90
52879;DHT22;38747;53.140;6.498;2023-01-25T02:51:09;0.40;99.90
52879;DHT22;38747;53.140;6.498;2023-01-25T02:53:35;0.40;99.90
52879;DHT22;38747;53.140;6.498;2023-01-25T02:56:01;0.40;99.90
52879;DHT22;38747;53.140;6.498;2023-01-25T02:58:26;0.30;99.90
52879;DHT22;38747;53.140;6.498;2023-01-25T03:00:53;0.30;99.90
52879;DHT22;38747;53.140;6.498;2023-01-25T03:03:20;0.30;99.90
52879;DHT22;38747;53.140;6.498;2023-01-25T03:05:45;0.30;99.90
52879;DHT22;38747;53.140;6.498;2023-01-25T03:08:11;0.30;99.90
52879;DHT22;38747;53.140;6.498;2023-01-25T03:10:38;0.30;99.90
52879;DHT22;38747;53.140;6.498;2023-01-25T03:13:03;0.30;99.90
52879;DHT22;38747;53.140;6.498;2023-01-25T03:15:29;0.30;99.90
52879;DHT22;38747;53.140;6.498;2023-01-25T03:17:55;0.30;99.90
52879;DHT22;38747;53.140;6.498;2023-01-25T03:20:21;0.30;99.90
52879;DHT22;38747;53.140;6.498;2023-01-25T03:22:47;0.20;99.90
52879;DHT22;38747;53.140;6.498;2023-01-25T03:25:13;0.20;99.90
52879;DHT22;38747;53.140;6.498;2023-01-25T03:27:38;0.20;99.90
52879;DHT22;38747;53.140;6.498;2023-01-25T03:30:04;0.20;99.90
52879;DHT22;38747;53.140;6.498;2023-01-25T03:32:30;0.20;99.90
52879;DHT22;38747;53.140;6.498;2023-01-25T03:34:56;0.20;99.90
52879;DHT22;38747;53.140;6.498;2023-01-25T03:37:23;0.20;99.90
52879;DHT22;38747;53.140;6.498;2023-01-25T03:39:54;0.10;99.90
52879;DHT22;38747;53.140;6.498;2023-01-25T03:42:20;0.20;99.90
52879;DHT22;38747;53.140;6.498;2023-01-25T03:44:46;0.20;99.90
52879;DHT22;38747;53.140;6.498;2023-01-25T03:47:11;0.20;99.90
52879;DHT22;38747;53.140;6.498;2023-01-25T03:49:37;0.20;99.90
52879;DHT22;38747;53.140;6.498;2023-01-25T03:52:03;0.20;99.90
52879;DHT22;38747;53.140;6.498;2023-01-25T03:54:28;0.20;99.90
52879;DHT22;38747;53.140;6.498;2023-01-25T03:56:54;0.20;99.90
52879;DHT22;38747;53.140;6.498;2023-01-25T03:59:20;0.20;99.90
52879;DHT22;38747;53.140;6.498;2023-01-25T04:01:45;0.20;99.90
52879;DHT22;38747;53.140;6.498;2023-01-25T04:04:11;0.20;99.90
52879;DHT22;38747;53.140;6.498;2023-01-25T04:06:37;0.20;99.90
52879;DHT22;38747;53.140;6.498;2023-01-25T04:09:02;0.20;99.90
52879;DHT22;38747;53.140;6.498;2023-01-25T04:11:28;0.20;99.90
52879;DHT22;38747;53.140;6.498;2023-01-25T04:13:54;0.20;99.90
52879;DHT22;38747;53.140;6.498;2023-01-25T04:16:19;0.10;99.90
52879;DHT22;38747;53.140;6.498;2023-01-25T04:18:45;0.20;99.90
52879;DHT22;38747;53.140;6.498;2023-01-25T04:21:11;0.20;99.90
52879;DHT22;38747;53.140;6.498;2023-01-25T04:23:36;0.20;99.90
52879;DHT22;38747;53.140;6.498;2023-01-25T04:26:06;0.20;99.90
52879;DHT22;38747;53.140;6.498;2023-01-25T04:28:34;0.20;99.90
52879;DHT22;38747;53.140;6.498;2023-01-25T04:31:00;0.20;99.90
52879;DHT22;38747;53.140;6.498;2023-01-25T04:33:28;0.10;99.90
52879;DHT22;38747;53.140;6.498;2023-01-25T04:35:54;0.20;99.90
52879;DHT22;38747;53.140;6.498;2023-01-25T04:38:20;0.10;99.90
52879;DHT22;38747;53.140;6.498;2023-01-25T04:40:45;0.10;99.90
52879;DHT22;38747;53.140;6.498;2023-01-25T04:43:15;0.10;99.90
52879;DHT22;38747;53.140;6.498;2023-01-25T04:45:41;0.10;99.90
52879;DHT22;38747;53.140;6.498;2023-01-25T04:48:09;0.00;99.90
52879;DHT22;38747;53.140;6.498;2023-01-25T04:50:36;0.10;99.90
52879;DHT22;38747;53.140;6.498;2023-01-25T04:53:02;0.10;99.90
52879;DHT22;38747;53.140;6.498;2023-01-25T04:55:27;0.10;99.90
52879;DHT22;38747;53.140;6.498;2023-01-25T04:57:53;0.10;99.90
52879;DHT22;38747;53.140;6.498;2023-01-25T05:00:19;0.10;99.90
52879;DHT22;38747;53.140;6.498;2023-01-25T05:02:45;0.10;99.90
52879;DHT22;38747;53.140;6.498;2023-01-25T05:05:11;0.10;99.90
52879;DHT22;38747;53.140;6.498;2023-01-25T05:07:36;0.10;99.90
52879;DHT22;38747;53.140;6.498;2023-01-25T05:10:03;0.10;99.90
52879;DHT22;38747;53.140;6.498;2023-01-25T05:12:29;0.10;99.90
52879;DHT22;38747;53.140;6.498;2023-01-25T05:14:54;0.10;99.90
52879;DHT22;38747;53.140;6.498;2023-01-25T05:17:20;0.10;99.90
52879;DHT22;38747;53.140;6.498;2023-01-25T05:19:45;0.10;99.90
52879;DHT22;38747;53.140;6.498;2023-01-25T05:22:16;0.10;99.90
52879;DHT22;38747;53.140;6.498;2023-01-25T05:24:42;0.10;99.90
52879;DHT22;38747;53.140;6.498;2023-01-25T05:27:11;0.10;99.90
52879;DHT22;38747;53.140;6.498;2023-01-25T05:29:39;0.10;99.90
52879;DHT22;38747;53.140;6.498;2023-01-25T05:34:32;0.20;99.90
52879;DHT22;38747;53.140;6.498;2023-01-25T05:36:57;0.20;99.90
52879;DHT22;38747;53.140;6.498;2023-01-25T05:39:24;0.20;99.90
52879;DHT22;38747;53.140;6.498;2023-01-25T05:41:50;0.10;99.90
52879;DHT22;38747;53.140;6.498;2023-01-25T05:44:15;0.10;99.90
52879;DHT22;38747;53.140;6.498;2023-01-25T05:46:41;0.10;99.90
52879;DHT22;38747;53.140;6.498;2023-01-25T05:49:07;0.10;99.90
52879;DHT22;38747;53.140;6.498;2023-01-25T05:51:33;0.10;99.90
52879;DHT22;38747;53.140;6.498;2023-01-25T05:54:00;0.00;99.90
52879;DHT22;38747;53.140;6.498;2023-01-25T05:56:25;0.00;99.90
52879;DHT22;38747;53.140;6.498;2023-01-25T05:58:56;0.00;99.90
52879;DHT22;38747;53.140;6.498;2023-01-25T06:01:22;-0.10;99.90
52879;DHT22;38747;53.140;6.498;2023-01-25T06:03:48;-0.10;99.90
52879;DHT22;38747;53.140;6.498;2023-01-25T06:06:13;-0.10;99.90
52879;DHT22;38747;53.140;6.498;2023-01-25T06:08:39;-0.10;99.90
52879;DHT22;38747;53.140;6.498;2023-01-25T06:11:16;-0.10;99.90
52879;DHT22;38747;53.140;6.498;2023-01-25T06:13:42;-0.20;99.90
52879;DHT22;38747;53.140;6.498;2023-01-25T06:16:08;-0.20;99.90
52879;DHT22;38747;53.140;6.498;2023-01-25T06:18:34;-0.10;99.90
52879;DHT22;38747;53.140;6.498;2023-01-25T06:21:01;-0.20;99.90
52879;DHT22;38747;53.140;6.498;2023-01-25T06:23:27;-0.20;99.90
52879;DHT22;38747;53.140;6.498;2023-01-25T06:26:00;-0.20;99.90
52879;DHT22;38747;53.140;6.498;2023-01-25T06:28:28;-0.20;99.90
52879;DHT22;38747;53.140;6.498;2023-01-25T06:30:54;-0.20;99.90
52879;DHT22;38747;53.140;6.498;2023-01-25T06:33:20;-0.20;99.90
52879;DHT22;38747;53.140;6.498;2023-01-25T06:35:45;-0.20;99.90
52879;DHT22;38747;53.140;6.498;2023-01-25T06:38:11;-0.20;99.90
52879;DHT22;38747;53.140;6.498;2023-01-25T06:40:36;-0.20;99.90
52879;DHT22;38747;53.140;6.498;2023-01-25T06:43:10;-0.20;99.90
52879;DHT22;38747;53.140;6.498;2023-01-25T06:45:36;-0.20;99.90
52879;DHT22;38747;53.140;6.498;2023-01-25T06:48:02;-0.20;99.90
52879;DHT22;38747;53.140;6.498;2023-01-25T06:50:27;-0.20;99.90
52879;DHT22;38747;53.140;6.498;2023-01-25T06:52:53;-0.20;99.90
52879;DHT22;38747;53.140;6.498;2023-01-25T06:55:20;-0.20;99.90
52879;DHT22;38747;53.140;6.498;2023-01-25T06:57:46;-0.20;99.90
52879;DHT22;38747;53.140;6.498;2023-01-25T07:00:13;-0.20;99.90
52879;DHT22;38747;53.140;6.498;2023-01-25T07:02:39;-0.20;99.90
52879;DHT22;38747;53.140;6.498;2023-01-25T07:05:05;-0.20;99.90
52879;DHT22;38747;53.140;6.498;2023-01-25T07:07:30;-0.20;99.90
52879;DHT22;38747;53.140;6.498;2023-01-25T07:09:56;-0.30;99.90
52879;DHT22;38747;53.140;6.498;2023-01-25T07:12:24;-0.30;99.90
52879;DHT22;38747;53.140;6.498;2023-01-25T07:14:50;-0.30;99.90
52879;DHT22;38747;53.140;6.498;2023-01-25T07:17:16;-0.30;99.90
52879;DHT22;38747;53.140;6.498;2023-01-25T07:19:42;-0.30;99.90
52879;DHT22;38747;53.140;6.498;2023-01-25T07:22:07;-0.30;99.90
52879;DHT22;38747;53.140;6.498;2023-01-25T07:24:33;-0.40;99.90
52879;DHT22;38747;53.140;6.498;2023-01-25T07:26:58;-0.40;99.90
52879;DHT22;38747;53.140;6.498;2023-01-25T07:29:24;-0.40;99.90
52879;DHT22;38747;53.140;6.498;2023-01-25T07:31:50;-0.40;99.90
52879;DHT22;38747;53.140;6.498;2023-01-25T07:34:16;-0.50;99.90
52879;DHT22;38747;53.140;6.498;2023-01-25T07:36:41;-0.50;99.90
52879;DHT22;38747;53.140;6.498;2023-01-25T07:39:11;-0.50;99.90
52879;DHT22;38747;53.140;6.498;2023-01-25T07:41:38;-0.50;99.90
52879;DHT22;38747;53.140;6.498;2023-01-25T07:44:04;-0.50;99.90
52879;DHT22;38747;53.140;6.498;2023-01-25T07:46:31;-0.50;99.90
52879;DHT22;38747;53.140;6.498;2023-01-25T07:48:57;-0.60;99.90
52879;DHT22;38747;53.140;6.498;2023-01-25T07:51:25;-0.50;99.90
52879;DHT22;38747;53.140;6.498;2023-01-25T07:53:57;-0.50;99.90
52879;DHT22;38747;53.140;6.498;2023-01-25T07:56:24;-0.60;99.90
52879;DHT22;38747;53.140;6.498;2023-01-25T07:58:52;-0.50;99.90
52879;DHT22;38747;53.140;6.498;2023-01-25T08:01:23;-0.50;99.90
52879;DHT22;38747;53.140;6.498;2023-01-25T08:03:50;-0.50;99.90
52879;DHT22;38747;53.140;6.498;2023-01-25T08:06:16;-0.50;99.90
52879;DHT22;38747;53.140;6.498;2023-01-25T08:08:44;-0.50;99.90
52879;DHT22;38747;53.140;6.498;2023-01-25T08:11:21;-0.50;99.90
52879;DHT22;38747;53.140;6.498;2023-01-25T08:13:47;-0.50;99.90
52879;DHT22;38747;53.140;6.498;2023-01-25T08:16:16;-0.40;99.90
52879;DHT22;38747;53.140;6.498;2023-01-25T08:18:45;-0.40;99.90
52879;DHT22;38747;53.140;6.498;2023-01-25T08:21:11;-0.40;99.90
52879;DHT22;38747;53.140;6.498;2023-01-25T08:23:36;-0.40;99.90
52879;DHT22;38747;53.140;6.498;2023-01-25T08:26:04;-0.40;99.90
52879;DHT22;38747;53.140;6.498;2023-01-25T08:28:30;-0.40;99.90
52879;DHT22;38747;53.140;6.498;2023-01-25T08:31:04;-0.30;99.90
52879;DHT22;38747;53.140;6.498;2023-01-25T08:33:30;-0.40;99.90
52879;DHT22;38747;53.140;6.498;2023-01-25T08:35:56;-0.40;99.90
52879;DHT22;38747;53.140;6.498;2023-01-25T08:38:22;-0.30;99.90
52879;DHT22;38747;53.140;6.498;2023-01-25T08:40:47;-0.40;99.90
52879;DHT22;38747;53.140;6.498;2023-01-25T08:43:13;-0.30;99.90
52879;DHT22;38747;53.140;6.498;2023-01-25T08:45:39;-0.30;99.90
52879;DHT22;38747;53.140;6.498;2023-01-25T08:48:04;-0.30;99.90
52879;DHT22;38747;53.140;6.498;2023-01-25T08:50:30;-0.40;99.90
52879;DHT22;38747;53.140;6.498;2023-01-25T08:52:56;-0.30;99.90
52879;DHT22;38747;53.140;6.498;2023-01-25T08:55:21;-0.30;99.90
52879;DHT22;38747;53.140;6.498;2023-01-25T08:57:47;-0.30;99.90
52879;DHT22;38747;53.140;6.498;2023-01-25T09:00:14;-0.30;99.90
52879;DHT22;38747;53.140;6.498;2023-01-25T09:02:39;-0.30;99.90
52879;DHT22;38747;53.140;6.498;2023-01-25T09:05:05;-0.30;99.90
52879;DHT22;38747;53.140;6.498;2023-01-25T09:07:31;-0.40;99.90
52879;DHT22;38747;53.140;6.498;2023-01-25T09:10:00;-0.40;99.90
52879;DHT22;38747;53.140;6.498;2023-01-25T09:12:25;-0.30;99.90
52879;DHT22;38747;53.140;6.498;2023-01-25T09:14:51;-0.40;99.90
52879;DHT22;38747;53.140;6.498;2023-01-25T09:17:17;-0.40;99.90
52879;DHT22;38747;53.140;6.498;2023-01-25T09:19:42;-0.40;99.90
52879;DHT22;38747;53.140;6.498;2023-01-25T09:22:08;-0.40;99.90
52879;DHT22;38747;53.140;6.498;2023-01-25T09:24:34;-0.30;99.90
52879;DHT22;38747;53.140;6.498;2023-01-25T09:26:59;-0.30;99.90
52879;DHT22;38747;53.140;6.498;2023-01-25T09:29:25;-0.30;99.90
52879;DHT22;38747;53.140;6.498;2023-01-25T09:31:51;-0.40;99.90
52879;DHT22;38747;53.140;6.498;2023-01-25T09:34:16;-0.30;99.90
52879;DHT22;38747;53.140;6.498;2023-01-25T09:36:42;-0.30;99.90
52879;DHT22;38747;53.140;6.498;2023-01-25T09:39:09;-0.30;99.90
52879;DHT22;38747;53.140;6.498;2023-01-25T09:46:53;-0.30;99.90
52879;DHT22;38747;53.140;6.498;2023-01-25T09:54:44;-0.30;99.90
52879;DHT22;38747;53.140;6.498;2023-01-25T09:57:15;-0.20;99.90
52879;DHT22;38747;53.140;6.498;2023-01-25T09:59:43;-0.20;99.90
52879;DHT22;38747;53.140;6.498;2023-01-25T10:04:44;-0.20;99.90
52879;DHT22;38747;53.140;6.498;2023-01-25T10:07:21;-0.20;99.90
52879;DHT22;38747;53.140;6.498;2023-01-25T10:10:02;-0.20;99.90
52879;DHT22;38747;53.140;6.498;2023-01-25T10:12:35;-0.20;99.90
52879;DHT22;38747;53.140;6.498;2023-01-25T10:15:01;-0.20;99.90
52879;DHT22;38747;53.140;6.498;2023-01-25T10:17:38;-0.10;99.90
52879;DHT22;38747;53.140;6.498;2023-01-25T10:22:54;-0.10;99.90
52879;DHT22;38747;53.140;6.498;2023-01-25T10:25:33;-0.10;99.90
52879;DHT22;38747;53.140;6.498;2023-01-25T10:28:06;-0.10;99.90
52879;DHT22;38747;53.140;6.498;2023-01-25T10:33:17;0.00;99.90
52879;DHT22;38747;53.140;6.498;2023-01-25T10:35:46;0.00;99.90
52879;DHT22;38747;53.140;6.498;2023-01-25T10:40:49;0.10;99.90
52879;DHT22;38747;53.140;6.498;2023-01-25T10:43:20;0.00;99.90
52879;DHT22;38747;53.140;6.498;2023-01-25T10:45:47;0.10;99.90
52879;DHT22;38747;53.140;6.498;2023-01-25T10:48:25;0.10;99.90
52879;DHT22;38747;53.140;6.498;2023-01-25T10:50:53;0.10;99.90
52879;DHT22;38747;53.140;6.498;2023-01-25T10:53:36;0.10;99.90
52879;DHT22;38747;53.140;6.498;2023-01-25T10:58:40;0.20;99.90
52879;DHT22;38747;53.140;6.498;2023-01-25T11:01:09;0.10;99.90
52879;DHT22;38747;53.140;6.498;2023-01-25T11:03:40;0.20;99.90
52879;DHT22;38747;53.140;6.498;2023-01-25T11:06:09;0.20;99.90
52879;DHT22;38747;53.140;6.498;2023-01-25T11:08:36;0.20;99.90
52879;DHT22;38747;53.140;6.498;2023-01-25T11:11:34;0.20;99.90
52879;DHT22;38747;53.140;6.498;2023-01-25T11:14:00;0.20;99.90
52879;DHT22;38747;53.140;6.498;2023-01-25T11:16:34;0.30;99.90
52879;DHT22;38747;53.140;6.498;2023-01-25T11:19:02;0.30;99.90
52879;DHT22;38747;53.140;6.498;2023-01-25T11:21:53;0.30;99.90
52879;DHT22;38747;53.140;6.498;2023-01-25T11:24:19;0.40;99.90
52879;DHT22;38747;53.140;6.498;2023-01-25T11:26:45;0.40;99.90
52879;DHT22;38747;53.140;6.498;2023-01-25T11:29:17;0.40;99.90
52879;DHT22;38747;53.140;6.498;2023-01-25T11:31:48;0.50;99.90
52879;DHT22;38747;53.140;6.498;2023-01-25T11:34:17;0.40;99.90
52879;DHT22;38747;53.140;6.498;2023-01-25T11:49:54;0.50;99.90
52879;DHT22;38747;53.140;6.498;2023-01-25T11:55:29;0.50;99.90
52879;DHT22;38747;53.140;6.498;2023-01-25T12:03:39;0.60;99.90
52879;DHT22;38747;53.140;6.498;2023-01-25T12:20:12;0.60;99.90
52879;DHT22;38747;53.140;6.498;2023-01-25T12:28:34;0.60;99.90
52879;DHT22;38747;53.140;6.498;2023-01-25T12:31:15;0.60;99.90
52879;DHT22;38747;53.140;6.498;2023-01-25T12:33:46;0.70;99.90
52879;DHT22;38747;53.140;6.498;2023-01-25T12:36:30;0.70;99.90
52879;DHT22;38747;53.140;6.498;2023-01-25T12:39:21;0.60;99.90
52879;DHT22;38747;53.140;6.498;2023-01-25T12:42:19;0.70;99.90
52879;DHT22;38747;53.140;6.498;2023-01-25T12:45:19;0.70;99.90
52879;DHT22;38747;53.140;6.498;2023-01-25T12:47:59;0.70;99.90
52879;DHT22;38747;53.140;6.498;2023-01-25T12:50:39;0.70;99.90
52879;DHT22;38747;53.140;6.498;2023-01-25T12:53:26;0.70;99.90
52879;DHT22;38747;53.140;6.498;2023-01-25T12:55:53;0.70;99.90
52879;DHT22;38747;53.140;6.498;2023-01-25T13:04:34;0.60;99.90
52879;DHT22;38747;53.140;6.498;2023-01-25T13:06:56;0.60;99.90
52879;DHT22;38747;53.140;6.498;2023-01-25T13:12:10;0.60;99.90
52879;DHT22;38747;53.140;6.498;2023-01-25T13:14:38;0.60;99.90
52879;DHT22;38747;53.140;6.498;2023-01-25T13:17:21;0.60;99.90
52879;DHT22;38747;53.140;6.498;2023-01-25T13:19:48;0.60;99.90
52879;DHT22;38747;53.140;6.498;2023-01-25T13:27:40;0.70;99.90
52879;DHT22;38747;53.140;6.498;2023-01-25T13:38:25;0.70;99.90
52879;DHT22;38747;53.140;6.498;2023-01-25T13:41:07;0.70;99.90
52879;DHT22;38747;53.140;6.498;2023-01-25T13:43:38;0.70;99.90
52879;DHT22;38747;53.140;6.498;2023-01-25T13:46:05;0.70;99.90
52879;DHT22;38747;53.140;6.498;2023-01-25T13:48:33;0.70;99.90
52879;DHT22;38747;53.140;6.498;2023-01-25T13:51:11;0.70;99.90
52879;DHT22;38747;53.140;6.498;2023-01-25T13:53:38;0.70;99.90
52879;DHT22;38747;53.140;6.498;2023-01-25T13:56:04;0.70;99.90
52879;DHT22;38747;53.140;6.498;2023-01-25T13:58:46;0.70;99.90
52879;DHT22;38747;53.140;6.498;2023-01-25T14:01:15;0.70;99.90
52879;DHT22;38747;53.140;6.498;2023-01-25T14:03:49;0.70;99.90
52879;DHT22;38747;53.140;6.498;2023-01-25T14:06:18;0.70;99.90
52879;DHT22;38747;53.140;6.498;2023-01-25T14:08:46;0.70;99.90
52879;DHT22;38747;53.140;6.498;2023-01-25T14:11:23;0.70;99.90
52879;DHT22;38747;53.140;6.498;2023-01-25T14:14:16;0.70;99.90
52879;DHT22;38747;53.140;6.498;2023-01-25T14:16:42;0.70;99.90
52879;DHT22;38747;53.140;6.498;2023-01-25T14:19:22;0.80;99.90
52879;DHT22;38747;53.140;6.498;2023-01-25T14:21:48;0.80;99.90
52879;DHT22;38747;53.140;6.498;2023-01-25T14:24:16;0.70;99.90
52879;DHT22;38747;53.140;6.498;2023-01-25T14:26:44;0.70;99.90
52879;DHT22;38747;53.140;6.498;2023-01-25T14:29:19;0.70;99.90
52879;DHT22;38747;53.140;6.498;2023-01-25T14:31:48;0.80;99.90
52879;DHT22;38747;53.140;6.498;2023-01-25T14:34:19;0.80;99.90
52879;DHT22;38747;53.140;6.498;2023-01-25T14:36:45;0.80;99.90
52879;DHT22;38747;53.140;6.498;2023-01-25T14:39:24;0.70;99.90
52879;DHT22;38747;53.140;6.498;2023-01-25T14:41:51;0.70;99.90
52879;DHT22;38747;53.140;6.498;2023-01-25T14:44:19;0.70;99.90
52879;DHT22;38747;53.140;6.498;2023-01-25T14:46:45;0.70;99.90
52879;DHT22;38747;53.140;6.498;2023-01-25T14:49:17;0.70;99.90
52879;DHT22;38747;53.140;6.498;2023-01-25T14:52:06;0.70;99.90
52879;DHT22;38747;53.140;6.498;2023-01-25T14:54:36;0.70;99.90
52879;DHT22;38747;53.140;6.498;2023-01-25T14:57:07;0.60;99.90
52879;DHT22;38747;53.140;6.498;2023-01-25T14:59:53;0.60;99.90
52879;DHT22;38747;53.140;6.498;2023-01-25T15:05:06;0.60;99.90
52879;DHT22;38747;53.140;6.498;2023-01-25T15:07:47;0.50;99.90
52879;DHT22;38747;53.140;6.498;2023-01-25T15:10:23;0.50;99.90
52879;DHT22;38747;53.140;6.498;2023-01-25T15:13:20;0.50;99.90
52879;DHT22;38747;53.140;6.498;2023-01-25T15:18:50;0.40;99.90
52879;DHT22;38747;53.140;6.498;2023-01-25T15:21:27;0.50;99.90
52879;DHT22;38747;53.140;6.498;2023-01-25T15:23:55;0.40;99.90
52879;DHT22;38747;53.140;6.498;2023-01-25T15:26:25;0.50;99.90
52879;DHT22;38747;53.140;6.498;2023-01-25T15:28:53;0.50;99.90
52879;DHT22;38747;53.140;6.498;2023-01-25T15:31:31;0.50;99.90
52879;DHT22;38747;53.140;6.498;2023-01-25T15:33:59;0.50;99.90
52879;DHT22;38747;53.140;6.498;2023-01-25T15:36:26;0.50;99.90
52879;DHT22;38747;53.140;6.498;2023-01-25T15:38:52;0.50;99.90
52879;DHT22;38747;53.140;6.498;2023-01-25T15:41:17;0.40;99.90
52879;DHT22;38747;53.140;6.498;2023-01-25T15:43:44;0.40;99.90
52879;DHT22;38747;53.140;6.498;2023-01-25T15:46:22;0.40;99.90
52879;DHT22;38747;53.140;6.498;2023-01-25T15:48:50;0.50;99.90
52879;DHT22;38747;53.140;6.498;2023-01-25T15:51:16;0.50;99.90
52879;DHT22;38747;53.140;6.498;2023-01-25T15:53:42;0.50;99.90
52879;DHT22;38747;53.140;6.498;2023-01-25T15:56:19;0.40;99.90
52879;DHT22;38747;53.140;6.498;2023-01-25T15:58:51;0.40;99.90
52879;DHT22;38747;53.140;6.498;2023-01-25T16:01:17;0.40;99.90
52879;DHT22;38747;53.140;6.498;2023-01-25T16:03:43;0.40;99.90
52879;DHT22;38747;53.140;6.498;2023-01-25T16:08:49;0.30;99.90
52879;DHT22;38747;53.140;6.498;2023-01-25T16:11:15;0.20;99.90
52879;DHT22;38747;53.140;6.498;2023-01-25T16:13:40;0.20;99.90
52879;DHT22;38747;53.140;6.498;2023-01-25T16:16:18;0.20;99.90
52879;DHT22;38747;53.140;6.498;2023-01-25T16:18:44;0.20;99.90
52879;DHT22;38747;53.140;6.498;2023-01-25T16:21:10;0.20;99.90
52879;DHT22;38747;53.140;6.498;2023-01-25T16:23:36;0.20;99.90
52879;DHT22;38747;53.140;6.498;2023-01-25T16:26:02;0.20;99.90
52879;DHT22;38747;53.140;6.498;2023-01-25T16:28:28;0.20;99.90
52879;DHT22;38747;53.140;6.498;2023-01-25T16:30:53;0.20;99.90
52879;DHT22;38747;53.140;6.498;2023-01-25T16:33:19;0.20;99.90
52879;DHT22;38747;53.140;6.498;2023-01-25T16:36:20;0.10;99.90
52879;DHT22;38747;53.140;6.498;2023-01-25T16:38:44;0.10;99.90
52879;DHT22;38747;53.140;6.498;2023-01-25T16:41:10;0.10;99.90
52879;DHT22;38747;53.140;6.498;2023-01-25T16:43:42;0.10;99.90
52879;DHT22;38747;53.140;6.498;2023-01-25T16:46:17;0.10;99.90
52879;DHT22;38747;53.140;6.498;2023-01-25T16:48:44;0.10;99.90
52879;DHT22;38747;53.140;6.498;2023-01-25T16:51:21;0.10;99.90
52879;DHT22;38747;53.140;6.498;2023-01-25T16:53:48;0.10;99.90
52879;DHT22;38747;53.140;6.498;2023-01-25T16:56:22;0.00;99.90
52879;DHT22;38747;53.140;6.498;2023-01-25T16:58:49;0.00;99.90
52879;DHT22;38747;53.140;6.498;2023-01-25T17:01:17;0.00;99.90
52879;DHT22;38747;53.140;6.498;2023-01-25T17:03:43;0.00;99.90
52879;DHT22;38747;53.140;6.498;2023-01-25T17:06:18;0.00;99.90
52879;DHT22;38747;53.140;6.498;2023-01-25T17:08:46;0.00;99.90
52879;DHT22;38747;53.140;6.498;2023-01-25T17:11:11;-0.10;99.90
52879;DHT22;38747;53.140;6.498;2023-01-25T17:13:37;-0.10;99.90
52879;DHT22;38747;53.140;6.498;2023-01-25T17:16:03;-0.10;99.90
52879;DHT22;38747;53.140;6.498;2023-01-25T17:18:28;-0.10;99.90
52879;DHT22;38747;53.140;6.498;2023-01-25T17:21:03;-0.10;99.90
52879;DHT22;38747;53.140;6.498;2023-01-25T17:23:30;-0.10;99.90
52879;DHT22;38747;53.140;6.498;2023-01-25T17:25:56;-0.10;99.90
52879;DHT22;38747;53.140;6.498;2023-01-25T17:28:22;-0.10;99.90
52879;DHT22;38747;53.140;6.498;2023-01-25T17:30:48;-0.10;99.90
52879;DHT22;38747;53.140;6.498;2023-01-25T17:33:16;-0.10;99.90
52879;DHT22;38747;53.140;6.498;2023-01-25T17:35:42;-0.10;99.90
52879;DHT22;38747;53.140;6.498;2023-01-25T17:38:08;-0.10;99.90
52879;DHT22;38747;53.140;6.498;2023-01-25T17:40:36;-0.10;99.90
52879;DHT22;38747;53.140;6.498;2023-01-25T17:43:02;-0.10;99.90